createdAt,value
2019-02-24T00:01:37.970Z,3.80
2019-02-24T00:04:09.177Z,2.90
2019-02-24T00:06:40.249Z,3.60
2019-02-24T00:09:11.391Z,3.65
2019-02-24T00:11:42.485Z,3.08
2019-02-24T00:14:13.556Z,2.95
2019-02-24T00:16:44.616Z,3.10
2019-02-24T00:19:15.716Z,3.45
2019-02-24T00:21:46.811Z,5.72
2019-02-24T00:24:17.907Z,5.58
2019-02-24T00:26:48.939Z,4.78
2019-02-24T00:29:20.011Z,4.70
2019-02-24T00:31:51.053Z,3.35
2019-02-24T00:34:22.118Z,3.45
2019-02-24T00:36:53.255Z,4.00
2019-02-24T00:39:24.377Z,2.55
2019-02-24T00:41:55.477Z,3.17
2019-02-24T00:44:26.514Z,4.00
2019-02-24T00:46:57.662Z,2.58
2019-02-24T00:49:28.807Z,3.75
2019-02-24T00:51:59.876Z,3.00
2019-02-24T00:54:30.933Z,2.80
2019-02-24T00:57:02.040Z,3.42
2019-02-24T00:59:33.118Z,2.52
2019-02-24T01:02:04.193Z,3.10
2019-02-24T01:04:36.226Z,3.10
2019-02-24T01:07:07.320Z,3.22
2019-02-24T01:09:38.471Z,2.67
2019-02-24T01:12:09.536Z,3.50
2019-02-24T01:14:40.592Z,3.00
2019-02-24T01:17:11.747Z,2.75
2019-02-24T01:19:42.779Z,2.65
2019-02-24T01:22:13.798Z,3.17
2019-02-24T01:24:44.859Z,3.25
2019-02-24T01:27:15.984Z,2.70
2019-02-24T01:29:47.026Z,4.00
2019-02-24T01:32:18.133Z,3.65
2019-02-24T01:34:49.230Z,2.42
2019-02-24T01:37:20.291Z,3.20
2019-02-24T01:39:51.469Z,2.90
2019-02-24T01:42:22.518Z,3.62
2019-02-24T01:44:53.631Z,2.10
2019-02-24T01:47:24.661Z,2.27
2019-02-24T01:49:56.729Z,3.42
2019-02-24T01:52:27.769Z,2.90
2019-02-24T01:54:58.846Z,3.10
2019-02-24T01:57:29.878Z,3.35
2019-02-24T02:00:02.505Z,3.12
2019-02-24T02:02:34.336Z,3.02
2019-02-24T02:05:07.102Z,2.98
2019-02-24T02:07:38.135Z,3.58
2019-02-24T02:10:09.257Z,2.60
2019-02-24T02:12:40.295Z,3.60
2019-02-24T02:15:11.762Z,3.80
2019-02-24T02:17:42.813Z,2.70
2019-02-24T02:20:13.946Z,2.90
2019-02-24T02:22:44.984Z,3.35
2019-02-24T02:25:17.041Z,2.05
2019-02-24T02:27:48.072Z,3.00
2019-02-24T02:30:19.155Z,3.20
2019-02-24T02:32:50.302Z,2.98
2019-02-24T02:35:21.364Z,2.80
2019-02-24T02:37:52.428Z,2.10
2019-02-24T02:40:23.469Z,2.27
2019-02-24T02:42:55.528Z,1.75
2019-02-24T02:45:26.563Z,2.30
2019-02-24T02:47:57.635Z,2.85
2019-02-24T02:50:28.677Z,2.70
2019-02-24T02:52:59.741Z,2.62
2019-02-24T02:55:30.806Z,2.87
2019-02-24T02:58:01.911Z,2.30
2019-02-24T03:00:35.820Z,2.80
2019-02-24T03:03:06.885Z,2.95
2019-02-24T03:05:38.524Z,1.95
2019-02-24T03:08:11.165Z,2.95
2019-02-24T03:10:42.208Z,2.40
2019-02-24T03:13:13.278Z,3.05
2019-02-24T03:15:44.306Z,2.42
2019-02-24T03:18:15.374Z,2.70
2019-02-24T03:20:46.411Z,2.72
2019-02-24T03:23:17.475Z,3.10
2019-02-24T03:25:48.544Z,3.30
2019-02-24T03:28:19.612Z,2.25
2019-02-24T03:30:50.677Z,3.60
2019-02-24T03:33:21.730Z,3.33
2019-02-24T03:35:52.864Z,2.55
2019-02-24T03:38:23.900Z,2.50
2019-02-24T03:40:54.972Z,2.90
2019-02-24T03:43:26.218Z,2.80
2019-02-24T03:45:57.281Z,2.72
2019-02-24T03:48:28.336Z,3.27
2019-02-24T03:50:59.400Z,3.15
2019-02-24T03:53:30.425Z,1.77
2019-02-24T03:56:01.502Z,2.33
2019-02-24T03:58:32.541Z,2.72
2019-02-24T04:01:03.592Z,3.15
2019-02-24T04:03:34.631Z,3.65
2019-02-24T04:06:05.698Z,2.35
2019-02-24T04:08:36.724Z,2.85
2019-02-24T04:11:07.794Z,2.98
2019-02-24T04:13:38.829Z,3.33
2019-02-24T04:16:09.898Z,3.65
2019-02-24T04:18:40.942Z,2.90
2019-02-24T04:21:12.024Z,3.02
2019-02-24T04:23:43.083Z,3.25
2019-02-24T04:26:14.145Z,3.50
2019-02-24T04:28:45.212Z,2.50
2019-02-24T04:31:16.254Z,3.25
2019-02-24T04:33:48.320Z,2.60
2019-02-24T04:36:19.351Z,3.20
2019-02-24T04:38:51.056Z,3.25
2019-02-24T04:41:22.111Z,4.50
2019-02-24T04:43:53.178Z,2.55
2019-02-24T04:46:25.228Z,3.37
2019-02-24T04:48:56.296Z,2.60
2019-02-24T04:51:27.323Z,3.00
2019-02-24T04:53:58.392Z,2.45
2019-02-24T04:56:29.435Z,2.95
2019-02-24T04:59:00.520Z,3.50
2019-02-24T05:01:31.561Z,3.67
2019-02-24T05:04:02.634Z,3.60
2019-02-24T05:06:33.665Z,3.47
2019-02-24T05:09:04.840Z,2.83
2019-02-24T05:11:35.867Z,2.58
2019-02-24T05:14:06.945Z,3.87
2019-02-24T05:16:38.010Z,4.17
2019-02-24T05:19:09.046Z,2.90
2019-02-24T05:21:40.123Z,3.10
2019-02-24T05:24:11.160Z,2.92
2019-02-24T05:26:42.221Z,3.15
2019-02-24T05:29:13.251Z,3.50
2019-02-24T05:31:44.314Z,3.55
2019-02-24T05:34:15.350Z,3.60
2019-02-24T05:36:46.431Z,2.90
2019-02-24T05:39:17.461Z,3.70
2019-02-24T05:41:48.528Z,2.95
2019-02-24T05:44:19.563Z,3.40
2019-02-24T05:46:50.627Z,4.08
2019-02-24T05:49:21.661Z,4.00
2019-02-24T05:51:52.734Z,5.20
2019-02-24T05:54:23.775Z,6.60
2019-02-24T05:56:54.845Z,12.88
2019-02-24T05:59:25.891Z,8.60
2019-02-24T06:01:56.970Z,6.33
2019-02-24T06:04:28.009Z,4.35
2019-02-24T06:06:59.078Z,3.50
2019-02-24T06:09:30.120Z,8.75
2019-02-24T06:12:01.199Z,11.10
2019-02-24T06:14:32.277Z,10.08
2019-02-24T06:17:03.315Z,5.83
2019-02-24T06:19:34.387Z,6.20
2019-02-24T06:22:05.449Z,5.50
2019-02-24T06:24:36.516Z,4.37
2019-02-24T06:27:07.560Z,3.98
2019-02-24T06:29:38.660Z,4.92
2019-02-24T06:32:09.691Z,4.30
2019-02-24T06:34:40.835Z,3.92
2019-02-24T06:37:11.877Z,4.25
2019-02-24T06:39:42.941Z,3.52
2019-02-24T06:42:13.992Z,3.62
2019-02-24T06:44:45.115Z,4.85
2019-02-24T06:47:16.153Z,3.92
2019-02-24T06:49:47.221Z,4.60
2019-02-24T06:52:19.837Z,3.55
2019-02-24T06:54:50.907Z,4.08
2019-02-24T06:57:21.945Z,3.80
2019-02-24T06:59:53.007Z,4.00
2019-02-24T07:02:24.118Z,3.35
2019-02-24T07:04:55.191Z,3.77
2019-02-24T07:07:26.313Z,3.75
2019-02-24T07:09:57.425Z,4.10
2019-02-24T07:12:28.437Z,4.55
2019-02-24T07:14:59.474Z,3.80
2019-02-24T07:17:30.548Z,4.15
2019-02-24T07:20:01.586Z,2.90
2019-02-24T07:22:32.728Z,3.30
2019-02-24T07:25:03.992Z,3.40
2019-02-24T07:27:35.194Z,4.15
2019-02-24T07:30:09.630Z,3.33
2019-02-24T07:32:40.699Z,3.70
2019-02-24T07:35:11.728Z,3.85
2019-02-24T07:37:42.901Z,3.95
2019-02-24T07:40:13.928Z,2.92
2019-02-24T07:42:45.006Z,2.83
2019-02-24T07:45:16.034Z,4.25
2019-02-24T07:47:47.105Z,3.52
2019-02-24T07:50:18.136Z,3.87
2019-02-24T07:52:49.213Z,3.15
2019-02-24T07:55:20.210Z,3.70
2019-02-24T07:57:51.251Z,2.30
2019-02-24T08:00:22.312Z,3.15
2019-02-24T08:02:53.423Z,3.27
2019-02-24T08:05:24.488Z,3.25
2019-02-24T08:07:55.527Z,3.80
2019-02-24T08:10:26.596Z,3.67
2019-02-24T08:12:58.633Z,3.25
2019-02-24T08:15:29.702Z,3.00
2019-02-24T08:18:00.735Z,3.83
2019-02-24T08:20:33.394Z,3.87
2019-02-24T08:23:04.616Z,3.75
2019-02-24T08:25:35.688Z,4.35
2019-02-24T08:28:07.718Z,4.08
2019-02-24T08:30:41.535Z,4.42
2019-02-24T08:33:11.584Z,3.58
2019-02-24T08:35:42.646Z,3.40
2019-02-24T08:38:13.684Z,3.77
2019-02-24T08:40:44.747Z,3.80
2019-02-24T08:43:15.789Z,5.35
2019-02-24T08:45:46.860Z,3.85
2019-02-24T08:48:19.264Z,4.75
2019-02-24T08:50:50.476Z,5.15
2019-02-24T08:53:21.541Z,3.83
2019-02-24T08:55:52.582Z,5.22
2019-02-24T08:58:23.658Z,3.55
2019-02-24T09:00:54.691Z,6.40
2019-02-24T09:03:25.747Z,3.77
2019-02-24T09:05:56.895Z,6.87
2019-02-24T09:08:29.493Z,4.17
2019-02-24T09:11:00.528Z,4.03
2019-02-24T09:13:31.575Z,4.53
2019-02-24T09:16:02.620Z,4.60
2019-02-24T09:18:33.680Z,3.92
2019-02-24T09:21:04.697Z,4.00
2019-02-24T09:23:35.773Z,4.20
2019-02-24T09:26:06.810Z,4.92
2019-02-24T09:28:37.906Z,4.28
2019-02-24T09:31:08.941Z,4.45
2019-02-24T09:33:40.002Z,4.40
2019-02-24T09:36:11.040Z,4.53
2019-02-24T09:38:42.339Z,4.45
2019-02-24T09:41:13.432Z,4.50
2019-02-24T09:43:44.383Z,5.03
2019-02-24T09:46:15.449Z,5.12
2019-02-24T09:48:46.475Z,4.30
2019-02-24T09:51:17.588Z,5.78
2019-02-24T09:53:49.781Z,4.90
2019-02-24T09:56:20.955Z,5.05
2019-02-24T09:58:51.984Z,7.47
2019-02-24T10:01:23.039Z,5.50
2019-02-24T10:03:54.062Z,8.00
2019-02-24T10:06:25.129Z,6.53
2019-02-24T10:08:56.156Z,6.60
2019-02-24T10:11:27.288Z,4.50
2019-02-24T10:13:58.364Z,4.85
2019-02-24T10:16:29.603Z,4.70
2019-02-24T10:19:00.794Z,5.65
2019-02-24T10:21:31.869Z,6.53
2019-02-24T10:24:05.421Z,5.53
2019-02-24T10:26:36.491Z,6.08
2019-02-24T10:29:07.617Z,5.05
2019-02-24T10:31:38.638Z,6.17
2019-02-24T10:34:09.697Z,5.60
2019-02-24T10:36:40.732Z,6.65
2019-02-24T10:39:13.820Z,7.60
2019-02-24T10:41:47.849Z,7.40
2019-02-24T10:44:18.918Z,4.60
2019-02-24T10:46:49.945Z,6.30
2019-02-24T10:49:21.011Z,5.97
2019-02-24T10:51:52.066Z,6.30
2019-02-24T10:54:23.248Z,5.37
2019-02-24T10:56:54.432Z,5.30
2019-02-24T10:59:28.262Z,6.00
2019-02-24T11:01:59.301Z,5.87
2019-02-24T11:04:30.370Z,5.58
2019-02-24T11:07:01.403Z,6.72
2019-02-24T11:09:32.467Z,5.87
2019-02-24T11:12:03.500Z,5.97
2019-02-24T11:14:34.633Z,5.97
2019-02-24T11:17:05.673Z,5.75
2019-02-24T11:19:36.737Z,4.75
2019-02-24T11:22:07.811Z,5.35
2019-02-24T11:24:38.848Z,5.35
2019-02-24T11:27:09.993Z,5.85
2019-02-24T11:29:41.031Z,5.78
2019-02-24T11:32:12.107Z,5.62
2019-02-24T11:34:43.145Z,5.17
2019-02-24T11:37:14.214Z,4.50
2019-02-24T11:39:45.249Z,4.72
2019-02-24T11:42:16.323Z,4.75
2019-02-24T11:44:47.351Z,5.58
2019-02-24T11:47:18.541Z,4.37
2019-02-24T11:49:49.571Z,4.50
2019-02-24T11:52:20.644Z,4.60
2019-02-24T11:54:51.684Z,5.33
2019-02-24T11:57:22.745Z,4.60
2019-02-24T11:59:54.807Z,5.03
2019-02-24T12:02:33.994Z,4.87
2019-02-24T12:04:58.605Z,4.28
2019-02-24T12:07:29.669Z,4.80
2019-02-24T12:10:00.704Z,4.72
2019-02-24T12:12:31.765Z,5.33
2019-02-24T12:15:02.831Z,5.12
2019-02-24T12:17:34.296Z,4.87
2019-02-24T12:20:08.369Z,3.83
2019-02-24T12:22:39.433Z,5.40
2019-02-24T12:25:12.503Z,5.20
2019-02-24T12:27:44.570Z,6.33
2019-02-24T12:30:19.217Z,4.42
2019-02-24T12:32:50.286Z,4.42
2019-02-24T12:35:21.365Z,5.67
2019-02-24T12:37:52.423Z,5.65
2019-02-24T12:40:23.496Z,5.53
2019-02-24T12:42:54.675Z,5.53
2019-02-24T12:45:25.836Z,4.45
2019-02-24T12:47:56.870Z,4.65
2019-02-24T12:50:27.955Z,4.47
2019-02-24T12:52:59.005Z,4.83
2019-02-24T12:55:30.176Z,5.40
2019-02-24T12:58:01.239Z,4.70
2019-02-24T13:00:32.420Z,5.62
2019-02-24T13:03:03.458Z,6.47
2019-02-24T13:05:35.605Z,5.83
2019-02-24T13:08:06.638Z,5.65
2019-02-24T13:10:37.706Z,5.90
2019-02-24T13:13:08.738Z,5.80
2019-02-24T13:15:39.809Z,4.80
2019-02-24T13:18:10.852Z,4.87
2019-02-24T13:20:41.922Z,4.33
2019-02-24T13:23:13.098Z,3.50
2019-02-24T13:25:45.774Z,4.83
2019-02-24T13:28:18.467Z,3.27
2019-02-24T13:30:49.626Z,3.62
2019-02-24T13:33:20.690Z,3.33
2019-02-24T13:35:51.904Z,3.75
2019-02-24T13:38:23.664Z,2.67
2019-02-24T13:40:54.732Z,3.30
2019-02-24T13:43:25.798Z,2.67
2019-02-24T13:45:56.835Z,3.25
2019-02-24T13:48:27.902Z,3.50
2019-02-24T13:50:58.935Z,3.95
2019-02-24T13:53:30.001Z,4.08
2019-02-24T13:56:02.049Z,3.00
2019-02-24T13:58:33.116Z,3.40
2019-02-24T14:01:04.162Z,3.33
2019-02-24T14:03:35.269Z,5.05
2019-02-24T14:06:06.322Z,3.90
2019-02-24T14:08:37.490Z,3.70
2019-02-24T14:11:08.638Z,2.80
2019-02-24T14:13:39.696Z,3.42
2019-02-24T14:16:10.738Z,3.60
2019-02-24T14:18:41.804Z,4.22
2019-02-24T14:21:12.882Z,4.20
2019-02-24T14:23:43.902Z,3.37
2019-02-24T14:26:14.978Z,3.77
2019-02-24T14:28:45.981Z,4.27
2019-02-24T14:31:17.024Z,3.57
2019-02-24T14:33:48.069Z,4.47
2019-02-24T14:36:19.113Z,4.10
2019-02-24T14:38:51.118Z,3.40
2019-02-24T14:41:22.151Z,3.80
2019-02-24T14:43:53.178Z,3.70
2019-02-24T14:46:24.319Z,3.17
2019-02-24T14:48:55.325Z,4.13
2019-02-24T14:51:26.402Z,3.60
2019-02-24T14:53:58.407Z,3.77
2019-02-24T14:56:29.460Z,4.67
2019-02-24T14:59:00.468Z,3.60
2019-02-24T15:01:31.507Z,4.60
2019-02-24T15:04:02.552Z,3.73
2019-02-24T15:06:33.678Z,4.27
2019-02-24T15:09:05.625Z,4.00
2019-02-24T15:11:38.243Z,3.67
2019-02-24T15:14:09.295Z,4.03
2019-02-24T15:16:40.289Z,4.37
2019-02-24T15:19:11.327Z,3.87
2019-02-24T15:21:42.341Z,3.67
2019-02-24T15:24:13.369Z,3.70
2019-02-24T15:26:44.394Z,7.13
2019-02-24T15:29:15.428Z,5.20
2019-02-24T15:31:46.815Z,5.70
2019-02-24T15:34:20.546Z,6.00
2019-02-24T15:36:51.568Z,3.63
2019-02-24T15:39:22.608Z,7.50
2019-02-24T15:41:53.730Z,4.17
2019-02-24T15:44:24.767Z,4.27
2019-02-24T15:46:55.778Z,3.90
2019-02-24T15:49:26.810Z,3.23
2019-02-24T15:51:57.817Z,4.07
2019-02-24T15:54:29.025Z,4.23
2019-02-24T15:57:00.033Z,3.60
2019-02-24T15:59:31.076Z,4.57
2019-02-24T16:02:02.131Z,4.53
2019-02-24T16:04:33.170Z,4.13
2019-02-24T16:07:04.208Z,4.40
2019-02-24T16:09:35.217Z,4.27
2019-02-24T16:12:06.263Z,4.30
2019-02-24T16:14:37.187Z,4.70
2019-02-24T16:17:08.276Z,3.85
2019-02-24T16:19:40.310Z,4.47
2019-02-24T16:22:11.386Z,5.70
2019-02-24T16:24:42.423Z,4.33
2019-02-24T16:27:13.493Z,4.97
2019-02-24T16:29:44.534Z,5.50
2019-02-24T16:32:16.594Z,4.05
2019-02-24T16:34:47.724Z,4.72
2019-02-24T16:37:18.781Z,4.62
2019-02-24T16:39:49.806Z,5.00
2019-02-24T16:42:20.861Z,5.50
2019-02-24T16:44:51.956Z,4.00
2019-02-24T16:47:23.101Z,6.83
2019-02-24T16:49:54.132Z,4.47
2019-02-24T16:52:25.173Z,4.58
2019-02-24T16:54:56.205Z,4.67
2019-02-24T16:57:27.263Z,6.25
2019-02-24T16:59:58.314Z,4.30
2019-02-24T17:02:29.375Z,5.40
2019-02-24T17:05:00.435Z,5.87
2019-02-24T17:07:34.224Z,5.30
2019-02-24T17:10:11.144Z,4.70
2019-02-24T17:12:42.272Z,5.12
2019-02-24T17:15:14.052Z,5.85
2019-02-24T17:17:45.076Z,6.30
2019-02-24T17:20:25.349Z,5.80
2019-02-24T17:22:56.501Z,4.97
2019-02-24T17:25:27.582Z,6.47
2019-02-24T17:27:58.630Z,5.05
2019-02-24T17:30:29.751Z,5.47
2019-02-24T17:33:00.778Z,5.75
2019-02-24T17:35:31.832Z,5.50
2019-02-24T17:38:02.867Z,6.37
2019-02-24T17:40:33.924Z,6.67
2019-02-24T17:43:04.998Z,5.90
2019-02-24T17:45:36.058Z,5.75
2019-02-24T17:48:07.082Z,6.92
2019-02-24T17:50:38.137Z,7.97
2019-02-24T17:53:09.170Z,7.37
2019-02-24T17:55:40.301Z,7.65
2019-02-24T17:58:11.335Z,7.83
2019-02-24T18:00:59.090Z,10.40
2019-02-24T18:03:38.837Z,10.82
2019-02-24T18:06:02.880Z,8.65
2019-02-24T18:08:33.919Z,9.80
2019-02-24T18:11:05.049Z,9.95
2019-02-24T18:13:36.100Z,9.43
2019-02-24T18:16:07.171Z,9.70
2019-02-24T18:18:38.216Z,9.85
2019-02-24T18:21:09.252Z,8.88
2019-02-24T18:23:40.315Z,10.38
2019-02-24T18:26:11.349Z,10.03
2019-02-24T18:28:42.422Z,8.75
2019-02-24T18:31:13.453Z,10.20
2019-02-24T18:33:48.263Z,10.72
2019-02-24T18:36:17.254Z,11.48
2019-02-24T18:38:48.320Z,12.30
2019-02-24T18:41:19.351Z,12.13
2019-02-24T18:43:50.418Z,12.90
2019-02-24T18:46:21.565Z,12.65
2019-02-24T18:48:52.821Z,11.48
2019-02-24T18:51:23.911Z,11.40
2019-02-24T18:53:55.933Z,11.63
2019-02-24T18:56:27.034Z,10.93
2019-02-24T18:58:58.100Z,11.33
2019-02-24T19:01:29.169Z,9.93
2019-02-24T19:04:00.233Z,9.43
2019-02-24T19:06:38.924Z,11.53
2019-02-24T19:09:04.080Z,10.35
2019-02-24T19:11:36.698Z,14.07
2019-02-24T19:14:07.742Z,12.53
2019-02-24T19:16:38.810Z,11.63
2019-02-24T19:19:09.862Z,11.88
2019-02-24T19:21:40.942Z,11.50
2019-02-24T19:24:11.991Z,11.90
2019-02-24T19:26:43.071Z,11.55
2019-02-24T19:29:14.117Z,11.85
2019-02-24T19:31:45.206Z,10.08
2019-02-24T19:34:16.234Z,9.50
2019-02-24T19:36:48.605Z,9.38
2019-02-24T19:39:20.404Z,10.98
2019-02-24T19:41:51.509Z,9.58
2019-02-24T19:44:22.552Z,10.30
2019-02-24T19:46:53.732Z,9.25
2019-02-24T19:49:27.777Z,10.55
2019-02-24T19:51:59.019Z,11.85
2019-02-24T19:54:30.112Z,11.00
2019-02-24T19:57:01.186Z,11.63
2019-02-24T19:59:32.263Z,10.28
2019-02-24T20:02:03.320Z,10.50
2019-02-24T20:04:34.381Z,10.05
2019-02-24T20:07:05.530Z,9.90
2019-02-24T20:09:36.593Z,9.83
2019-02-24T20:12:07.641Z,9.95
2019-02-24T20:14:38.721Z,10.08
2019-02-24T20:17:09.763Z,11.00
2019-02-24T20:19:40.838Z,8.40
2019-02-24T20:22:11.890Z,10.23
2019-02-24T20:24:43.065Z,9.35
2019-02-24T20:27:14.162Z,9.63
2019-02-24T20:29:45.245Z,10.80
2019-02-24T20:32:18.035Z,10.78
2019-02-24T20:34:49.105Z,9.93
2019-02-24T20:37:20.201Z,8.15
2019-02-24T20:39:51.275Z,9.65
2019-02-24T20:42:22.341Z,9.85
2019-02-24T20:44:53.423Z,10.25
2019-02-24T20:47:24.497Z,10.98
2019-02-24T20:49:55.542Z,9.25
2019-02-24T20:52:26.609Z,9.23
2019-02-24T20:54:57.664Z,10.10
2019-02-24T20:57:28.749Z,10.65
2019-02-24T20:59:59.809Z,9.43
2019-02-24T21:02:31.135Z,9.78
2019-02-24T21:05:02.186Z,9.63
2019-02-24T21:07:33.253Z,9.95
2019-02-24T21:10:06.096Z,9.03
2019-02-24T21:12:37.158Z,9.58
2019-02-24T21:15:12.594Z,8.95
2019-02-24T21:17:43.685Z,10.43
2019-02-24T21:20:24.610Z,8.68
2019-02-24T21:22:55.707Z,12.07
2019-02-24T21:25:26.752Z,12.13
2019-02-24T21:27:57.832Z,15.30
2019-02-24T21:30:28.874Z,11.83
2019-02-24T21:32:59.950Z,13.28
2019-02-24T21:35:30.994Z,14.30
2019-02-24T21:38:02.082Z,14.25
2019-02-24T21:40:33.152Z,12.85
2019-02-24T21:43:04.197Z,10.98
2019-02-24T21:45:35.274Z,11.63
2019-02-24T21:48:06.335Z,10.65
2019-02-24T21:50:37.409Z,10.72
2019-02-24T21:53:08.463Z,11.48
2019-02-24T21:55:39.542Z,11.60
2019-02-24T21:58:10.589Z,10.88
2019-02-24T22:00:41.763Z,12.43
2019-02-24T22:03:12.816Z,10.70
2019-02-24T22:05:44.895Z,10.70
2019-02-24T22:08:15.943Z,10.55
2019-02-24T22:10:47.030Z,12.20
2019-02-24T22:13:18.066Z,12.20
2019-02-24T22:15:49.144Z,12.15
2019-02-24T22:18:20.211Z,11.15
2019-02-24T22:20:51.287Z,11.80
2019-02-24T22:23:22.371Z,12.13
2019-02-24T22:25:53.409Z,10.78
2019-02-24T22:28:24.483Z,11.05
2019-02-24T22:30:55.530Z,11.05
2019-02-24T22:33:26.596Z,9.70
2019-02-24T22:35:57.640Z,11.20
2019-02-24T22:38:28.714Z,10.00
2019-02-24T22:40:59.756Z,10.88
2019-02-24T22:43:30.836Z,12.28
2019-02-24T22:46:01.888Z,10.15
2019-02-24T22:48:32.975Z,11.90
2019-02-24T22:51:05.025Z,11.35
2019-02-24T22:53:36.152Z,10.30
2019-02-24T22:56:07.259Z,9.95
2019-02-24T22:58:38.339Z,11.70
2019-02-24T23:01:11.742Z,11.18
2019-02-24T23:03:42.819Z,11.22
2019-02-24T23:06:13.964Z,11.12
2019-02-24T23:08:45.134Z,9.78
2019-02-24T23:11:16.211Z,10.20
2019-02-24T23:13:47.248Z,9.73
2019-02-24T23:16:18.321Z,9.30
2019-02-24T23:18:50.381Z,9.93
2019-02-24T23:21:21.465Z,9.73
2019-02-24T23:23:52.509Z,8.68
2019-02-24T23:26:23.577Z,9.73
2019-02-24T23:28:54.616Z,9.55
2019-02-24T23:31:25.705Z,8.45
2019-02-24T23:33:56.751Z,8.73
2019-02-24T23:36:27.824Z,8.35
2019-02-24T23:38:58.863Z,8.15
2019-02-24T23:41:29.926Z,9.25
2019-02-24T23:44:00.969Z,8.80
2019-02-24T23:46:32.040Z,7.90
2019-02-24T23:49:03.092Z,7.83
2019-02-24T23:51:34.227Z,7.00
2019-02-24T23:54:05.329Z,6.28
2019-02-24T23:56:36.597Z,7.45
2019-02-24T23:59:07.937Z,7.15
